Time;durP1;ratioP1;P1;durP2;ratioP2;P2;SDS_P1;SDS_P2;PMS_P1;PMS_P2;Temp;Humidity;BMP_temperature;BMP_pressure;BME280_temperature;BME280_humidity;BME280_pressure;Samples;Min_cycle;Max_cycle;Signal;HPM_P1;HPM_P2
2023/05/19 00:00:43;;;;;;;5.38;3.05;;;;;;;19.82;37.15;102560.47;5013819;28;20045;-70
2023/05/19 00:03:09;;;;;;;6.03;3.17;;;;;;;19.74;37.00;102550.31;5003356;28;20037;-70
2023/05/19 00:05:39;;;;;;;6.47;3.42;;;;;;;19.81;37.20;102563.22;5004872;28;20473;-71
2023/05/19 00:08:08;;;;;;;4.80;3.30;;;;;;;19.80;37.04;102561.50;5014456;28;20039;-71
2023/05/19 00:10:34;;;;;;;5.78;3.20;;;;;;;19.80;37.09;102559.69;5020791;28;20040;-71
2023/05/19 00:12:59;;;;;;;5.40;3.03;;;;;;;19.79;37.10;102565.06;5007973;28;20037;-68
2023/05/19 00:15:25;;;;;;;5.82;2.90;;;;;;;19.79;37.29;102559.78;5005229;28;20054;-70
2023/05/19 00:17:51;;;;;;;6.68;3.17;;;;;;;19.77;37.45;102551.09;5008549;28;20037;-68
2023/05/19 00:20:16;;;;;;;6.38;3.17;;;;;;;19.78;37.04;102555.44;5005382;28;20045;-70
2023/05/19 00:22:43;;;;;;;5.85;3.22;;;;;;;19.77;37.14;102551.94;5005994;28;20084;-70
2023/05/19 00:25:09;;;;;;;5.63;3.13;;;;;;;19.75;36.81;102541.41;5002820;28;20030;-70
2023/05/19 00:27:34;;;;;;;6.13;3.22;;;;;;;19.75;37.13;102543.22;5021014;28;20037;-69
2023/05/19 00:30:00;;;;;;;5.15;3.10;;;;;;;19.74;37.21;102544.16;5010938;28;20033;-69
2023/05/19 00:32:25;;;;;;;7.13;3.28;;;;;;;19.74;36.85;102542.38;5016272;28;20393;-70
2023/05/19 00:34:50;;;;;;;4.60;3.10;;;;;;;19.72;37.06;102541.59;5004367;28;20053;-69
2023/05/19 00:37:16;;;;;;;6.78;3.13;;;;;;;19.74;36.96;102537.09;5021247;28;20038;-70
2023/05/19 00:39:41;;;;;;;5.93;3.17;;;;;;;19.74;37.09;102537.09;5020902;28;20034;-71
2023/05/19 00:42:08;;;;;;;5.93;2.92;;;;;;;19.67;37.23;102527.81;5022227;28;20278;-69
2023/05/19 00:44:38;;;;;;;5.90;3.15;;;;;;;19.69;37.05;102530.38;5013555;28;20040;-70
2023/05/19 00:47:04;;;;;;;5.38;2.95;;;;;;;19.69;36.78;102536.53;5005525;28;20232;-69
2023/05/19 00:49:29;;;;;;;8.13;3.50;;;;;;;19.69;36.96;102527.72;5016774;28;20593;-70
2023/05/19 00:51:55;;;;;;;7.60;3.60;;;;;;;19.68;37.21;102532.19;5012087;28;20033;-69
2023/05/19 00:54:21;;;;;;;6.65;3.45;;;;;;;19.67;36.97;102525.16;5008609;28;20045;-71
2023/05/19 00:56:48;;;;;;;6.72;3.28;;;;;;;19.69;37.07;102527.72;5016571;28;20038;-71
2023/05/19 00:59:14;;;;;;;6.72;3.30;;;;;;;19.69;37.16;102530.38;5001955;28;20034;-70
2023/05/19 01:01:39;;;;;;;6.10;3.30;;;;;;;19.65;37.07;102523.59;5002548;28;20056;-70
2023/05/19 01:04:08;;;;;;;5.78;3.00;;;;;;;19.67;37.04;102533.09;5021479;28;20030;-70
2023/05/19 01:06:36;;;;;;;6.15;3.25;;;;;;;19.65;37.03;102532.38;5006491;28;20034;-70
2023/05/19 01:09:02;;;;;;;5.70;3.05;;;;;;;19.65;37.14;102531.53;5021377;28;20037;-70
2023/05/19 01:11:27;;;;;;;5.03;2.95;;;;;;;19.66;37.29;102535.84;5006950;28;20033;-70
2023/05/19 01:13:53;;;;;;;5.95;3.15;;;;;;;19.63;37.02;102538.69;5001879;28;20053;-71
2023/05/19 01:16:22;;;;;;;5.63;2.95;;;;;;;19.62;37.14;102529.06;4999626;28;20037;-70
2023/05/19 01:19:15;;;;;;;5.80;2.92;;;;;;;19.63;37.21;102536.03;5015251;28;20029;-71
2023/05/19 01:22:05;;;;;;;6.47;2.80;;;;;;;19.63;37.28;102525.44;5004672;28;20062;-70
2023/05/19 01:24:40;;;;;;;5.13;2.78;;;;;;;19.63;37.10;102526.31;5001161;28;20095;-69
2023/05/19 01:27:34;;;;;;;6.20;3.05;;;;;;;19.60;37.19;102534.44;5001286;28;20045;-71
2023/05/19 01:30:30;;;;;;;5.40;2.78;;;;;;;19.62;37.40;102531.72;5001017;28;20037;-69
2023/05/19 01:33:00;;;;;;;5.82;2.90;;;;;;;19.62;37.25;102532.53;5012619;28;20106;-69
2023/05/19 01:35:26;;;;;;;4.97;2.95;;;;;;;19.61;37.58;102527.34;5008670;28;20029;-71
2023/05/19 01:37:56;;;;;;;6.18;3.00;;;;;;;19.56;37.28;102522.34;5000941;28;20042;-69
2023/05/19 01:40:23;;;;;;;5.95;3.00;;;;;;;19.57;37.33;102522.25;5002087;28;20141;-69
2023/05/19 01:42:52;;;;;;;6.72;3.08;;;;;;;19.56;37.38;102525.81;5002321;28;20116;-71
2023/05/19 01:45:18;;;;;;;6.22;2.70;;;;;;;19.55;37.72;102524.16;5017379;28;20128;-69
2023/05/19 01:47:47;;;;;;;5.22;3.00;;;;;;;19.56;37.55;102523.19;5000955;28;20048;-70
2023/05/19 01:50:12;;;;;;;5.85;2.88;;;;;;;19.56;37.64;102517.06;5013554;28;20143;-70
2023/05/19 01:52:38;;;;;;;4.78;3.05;;;;;;;19.56;37.50;102517.88;5000759;28;20906;-72
2023/05/19 01:55:04;;;;;;;6.03;3.00;;;;;;;19.56;37.68;102517.88;5000652;28;20038;-69
2023/05/19 01:57:36;;;;;;;5.88;2.65;;;;;;;19.53;37.65;102518.06;5007242;28;20037;-71
2023/05/19 02:00:43;;;;;;;6.38;2.70;;;;;;;19.53;37.82;102515.44;5019933;28;20034;-70
2023/05/19 02:03:43;;;;;;;6.32;2.85;;;;;;;19.55;37.76;102517.97;5008657;28;20124;-70
2023/05/19 02:06:30;;;;;;;5.55;2.78;;;;;;;19.54;37.58;102516.31;5018008;28;20037;-69
2023/05/19 02:09:03;;;;;;;4.82;2.50;;;;;;;19.54;37.69;102513.66;5006775;28;20036;-70
2023/05/19 02:11:46;;;;;;;5.55;2.60;;;;;;;19.51;37.59;102508.56;5016611;28;20091;-71
2023/05/19 02:14:28;;;;;;;6.82;3.13;;;;;;;19.51;37.39;102505.91;4976940;28;1044254;-69
2023/05/19 02:16:56;;;;;;;5.45;2.70;;;;;;;19.50;37.57;102504.19;5008771;28;20493;-72
2023/05/19 02:19:27;;;;;;;4.70;2.80;;;;;;;19.52;37.78;102512.91;5012184;28;20056;-70
2023/05/19 02:21:52;;;;;;;6.00;2.83;;;;;;;19.50;37.37;102505.06;5009112;28;20120;-70
2023/05/19 02:24:18;;;;;;;6.50;3.13;;;;;;;19.50;37.74;102510.34;5014764;28;20159;-69
2023/05/19 02:26:44;;;;;;;5.78;2.65;;;;;;;19.50;37.72;102506.84;5004967;28;20026;-70
2023/05/19 02:29:10;;;;;;;7.40;2.70;;;;;;;19.47;37.75;102510.53;5015129;28;20048;-72
2023/05/19 02:31:35;;;;;;;5.82;2.75;;;;;;;19.50;37.72;102506.84;5024615;28;20029;-70
2023/05/19 02:34:00;;;;;;;5.25;2.45;;;;;;;19.47;37.89;102502.63;5016458;28;20041;-70
2023/05/19 02:36:27;;;;;;;4.57;2.78;;;;;;;19.48;37.69;102500.81;5022785;28;20104;-71
2023/05/19 02:38:52;;;;;;;4.55;2.58;;;;;;;19.46;37.69;102500.06;5018007;28;20056;-71
2023/05/19 02:41:17;;;;;;;4.88;2.75;;;;;;;19.47;37.56;102499.09;5007942;28;20034;-71
2023/05/19 02:43:42;;;;;;;6.10;3.10;;;;;;;19.47;37.82;102499.09;5004764;28;20038;-72
2023/05/19 02:46:08;;;;;;;4.95;2.95;;;;;;;19.47;37.58;102501.75;5018852;28;20622;-70
2023/05/19 02:48:33;;;;;;;5.15;2.92;;;;;;;19.45;37.54;102493.91;5009810;28;20038;-68
2023/05/19 02:50:58;;;;;;;6.15;2.78;;;;;;;19.45;37.69;102501.84;5022497;28;20129;-69
2023/05/19 02:53:24;;;;;;;6.27;2.73;;;;;;;19.46;38.06;102498.25;5016473;28;20120;-70
2023/05/19 02:55:49;;;;;;;5.00;2.97;;;;;;;19.44;37.68;102491.34;5015170;28;20274;-72
2023/05/19 02:58:14;;;;;;;4.95;2.65;;;;;;;19.44;37.70;102489.56;5035090;28;20036;-70
2023/05/19 03:00:39;;;;;;;5.83;2.90;;;;;;;19.44;37.68;102489.56;5011934;28;20033;-71
2023/05/19 03:03:05;;;;;;;5.43;2.70;;;;;;;19.44;37.91;102492.22;5017492;28;21104;-70
2023/05/19 03:05:30;;;;;;;7.18;3.03;;;;;;;19.42;37.86;102485.31;5007281;28;20129;-70
2023/05/19 03:07:55;;;;;;;6.35;2.90;;;;;;;19.43;37.82;102490.50;5009002;28;20458;-70
2023/05/19 03:10:21;;;;;;;6.50;2.75;;;;;;;19.43;37.65;102493.16;5013463;28;20029;-71
2023/05/19 03:12:46;;;;;;;5.50;2.75;;;;;;;19.40;37.66;102493.34;5014172;28;21233;-70
2023/05/19 03:15:13;;;;;;;4.93;2.60;;;;;;;19.39;37.67;102488.97;5020785;28;20050;-70
2023/05/19 03:17:39;;;;;;;5.32;2.75;;;;;;;19.39;37.65;102495.16;5011313;28;20263;-70
2023/05/19 03:20:05;;;;;;;5.30;2.70;;;;;;;19.38;37.58;102493.44;5010694;28;20134;-70
2023/05/19 03:22:31;;;;;;;7.82;2.67;;;;;;;19.38;37.88;102488.13;5014213;28;20057;-70
2023/05/19 03:24:57;;;;;;;6.43;2.80;;;;;;;19.37;37.83;102496.16;5017400;28;20062;-72
2023/05/19 03:27:22;;;;;;;6.05;2.85;;;;;;;19.37;37.68;102498.81;5019777;28;20457;-71
2023/05/19 03:29:47;;;;;;;5.50;2.75;;;;;;;19.36;37.90;102492.69;5010552;28;20029;-72
2023/05/19 03:32:13;;;;;;;5.88;2.75;;;;;;;19.37;37.80;102504.94;5017198;28;20480;-69
2023/05/19 03:34:38;;;;;;;5.25;2.83;;;;;;;19.38;37.60;102506.66;5015991;28;20033;-69
2023/05/19 03:37:03;;;;;;;5.23;2.50;;;;;;;19.37;37.97;102504.94;5013897;28;20453;-70
2023/05/19 03:39:29;;;;;;;6.00;3.33;;;;;;;19.37;37.61;102507.59;5010255;28;20290;-69
2023/05/19 03:41:55;;;;;;;5.03;2.50;;;;;;;19.36;38.07;102507.72;5010995;28;20096;-71
2023/05/19 03:44:20;;;;;;;6.03;3.45;;;;;;;19.34;37.59;102506.91;5016689;28;20332;-72
2023/05/19 03:46:45;;;;;;;4.97;2.67;;;;;;;19.34;37.67;102512.22;5014697;28;20543;-70
2023/05/19 03:49:11;;;;;;;4.40;2.45;;;;;;;19.36;37.86;102520.91;5006677;28;20026;-69
2023/05/19 03:51:36;;;;;;;5.30;2.92;;;;;;;19.34;37.96;102513.09;5015173;28;20030;-69
2023/05/19 03:54:01;;;;;;;4.57;2.60;;;;;;;19.33;37.85;102511.38;5008791;28;20030;-69
2023/05/19 03:56:27;;;;;;;5.75;2.88;;;;;;;19.31;37.77;102510.63;5019634;28;20080;-70
2023/05/19 03:58:53;;;;;;;4.32;2.58;;;;;;;19.34;37.76;102512.22;5015975;28;20037;-69
2023/05/19 04:01:19;;;;;;;4.57;2.50;;;;;;;19.31;37.69;102515.03;5012897;28;20168;-70
2023/05/19 04:03:44;;;;;;;5.75;2.42;;;;;;;19.33;37.86;102507.88;5012522;28;20152;-69
2023/05/19 04:06:10;;;;;;;5.97;2.88;;;;;;;19.32;37.79;102503.53;5014288;28;20037;-70
2023/05/19 04:08:35;;;;;;;5.43;2.80;;;;;;;19.31;38.00;102505.34;5016288;28;20033;-71
2023/05/19 04:11:00;;;;;;;6.00;2.70;;;;;;;19.31;37.98;102510.63;5012958;28;20116;-72
2023/05/19 04:13:25;;;;;;;7.30;2.72;;;;;;;19.32;37.97;102516.75;5013748;28;20537;-70
2023/05/19 04:15:51;;;;;;;4.65;2.55;;;;;;;19.30;38.05;102508.06;5017224;28;20049;-69
2023/05/19 04:18:16;;;;;;;5.78;2.75;;;;;;;19.30;37.94;102508.91;5015873;28;20029;-69
2023/05/19 04:20:41;;;;;;;4.22;2.40;;;;;;;19.30;38.17;102503.63;5007670;28;20038;-72
2023/05/19 04:23:07;;;;;;;4.88;2.72;;;;;;;19.29;38.05;102506.34;5008673;28;20042;-70
2023/05/19 04:25:34;;;;;;;4.90;2.67;;;;;;;19.26;38.24;102498.59;5009712;28;20033;-71
2023/05/19 04:28:00;;;;;;;6.82;2.83;;;;;;;19.28;38.02;102502.00;5006140;28;20056;-70
2023/05/19 04:30:27;;;;;;;5.47;2.80;;;;;;;19.29;38.10;102506.34;5016528;28;20469;-69
2023/05/19 04:32:52;;;;;;;5.57;2.92;;;;;;;19.26;37.93;102502.09;5010507;28;20142;-70
2023/05/19 04:35:18;;;;;;;5.07;2.60;;;;;;;19.25;38.04;102503.06;5014290;28;20176;-69
2023/05/19 04:37:47;;;;;;;5.25;2.85;;;;;;;19.26;38.17;102504.72;5016484;28;20736;-69
2023/05/19 04:40:13;;;;;;;5.03;2.95;;;;;;;19.26;38.25;102515.31;5017937;28;20478;-70
2023/05/19 04:42:41;;;;;;;6.68;2.70;;;;;;;19.26;38.10;102509.19;5017536;28;20054;-69
2023/05/19 04:45:08;;;;;;;4.80;2.53;;;;;;;19.26;38.27;102506.53;5018674;28;20037;-71
2023/05/19 04:47:37;;;;;;;4.80;2.50;;;;;;;19.24;37.95;102513.72;5021628;28;20110;-69
2023/05/19 04:50:06;;;;;;;5.85;3.10;;;;;;;19.21;38.12;102510.28;5004849;28;20125;-71
2023/05/19 04:52:32;;;;;;;5.85;3.03;;;;;;;19.19;38.25;102504.25;5018493;28;20037;-72
2023/05/19 04:54:57;;;;;;;5.25;2.67;;;;;;;19.25;37.97;102507.47;5005324;28;20087;-70
2023/05/19 04:57:22;;;;;;;4.78;2.45;;;;;;;19.25;38.32;102513.63;5010097;28;20048;-71
2023/05/19 04:59:48;;;;;;;5.28;2.47;;;;;;;19.23;38.07;102512.84;5012841;28;20899;-70
2023/05/19 05:02:14;;;;;;;6.22;2.58;;;;;;;19.24;38.34;102508.44;5005267;28;20049;-69
2023/05/19 05:04:42;;;;;;;5.10;3.05;;;;;;;19.23;38.27;102506.72;5014296;28;20025;-71
2023/05/19 05:07:07;;;;;;;5.65;2.60;;;;;;;19.23;38.13;102509.38;5021502;28;20034;-70
2023/05/19 05:09:33;;;;;;;6.18;2.90;;;;;;;19.22;38.36;102511.16;5014769;28;20436;-72
2023/05/19 05:11:59;;;;;;;5.95;2.60;;;;;;;19.24;38.39;102514.56;5000865;28;20619;-72
2023/05/19 05:14:25;;;;;;;5.22;2.63;;;;;;;19.23;38.06;102509.38;5011672;28;20053;-71
2023/05/19 05:16:51;;;;;;;5.15;2.50;;;;;;;19.21;38.28;102507.66;5018719;28;20045;-70
2023/05/19 05:19:16;;;;;;;6.43;2.70;;;;;;;19.21;38.27;102512.94;5008625;28;20046;-70
2023/05/19 05:21:42;;;;;;;7.47;2.97;;;;;;;19.21;38.65;102510.28;5002224;28;20130;-68
2023/05/19 05:24:08;;;;;;;5.45;2.60;;;;;;;19.22;38.33;102513.81;5002241;28;20176;-69
2023/05/19 05:26:34;;;;;;;5.00;2.33;;;;;;;19.23;38.29;102517.28;5008834;28;20029;-71
2023/05/19 05:28:59;;;;;;;5.65;2.50;;;;;;;19.24;38.25;102521.66;5001814;28;20030;-71
2023/05/19 05:31:25;;;;;;;5.47;2.80;;;;;;;19.20;38.91;102519.19;5001773;28;20042;-70
2023/05/19 05:33:50;;;;;;;7.53;2.42;;;;;;;19.21;38.47;102522.66;5006005;28;20060;-70
2023/05/19 05:36:16;;;;;;;4.00;2.47;;;;;;;19.14;38.72;102514.25;5002250;28;20087;-70
2023/05/19 05:38:41;;;;;;;5.35;2.45;;;;;;;19.18;38.56;102528.13;5017752;28;20056;-72
2023/05/19 05:41:06;;;;;;;4.43;2.00;;;;;;;19.14;38.80;102518.72;5021451;28;20098;-70
2023/05/19 05:43:31;;;;;;;5.00;2.35;;;;;;;19.12;38.70;102518.78;5019786;28;20385;-70
2023/05/19 05:45:57;;;;;;;4.43;2.30;;;;;;;19.10;38.96;102525.09;5001795;28;20056;-69
2023/05/19 05:48:23;;;;;;;5.63;2.40;;;;;;;19.10;38.87;102523.31;5001577;28;20477;-71
2023/05/19 05:50:49;;;;;;;4.20;2.33;;;;;;;19.11;38.94;102518.88;5005460;28;20057;-69
2023/05/19 05:53:19;;;;;;;5.05;2.38;;;;;;;19.11;39.15;102521.53;5004919;28;20033;-69
2023/05/19 05:55:46;;;;;;;5.03;2.00;;;;;;;19.11;39.54;102522.38;5019409;28;20436;-69
2023/05/19 05:58:13;;;;;;;5.05;2.10;;;;;;;19.12;39.28;102529.38;5009392;28;20026;-70
2023/05/19 06:00:42;;;;;;;5.45;2.05;;;;;;;19.12;39.46;102516.16;5003739;28;20037;-69
2023/05/19 06:03:08;;;;;;;5.35;2.40;;;;;;;19.14;39.69;102526.63;5001500;28;20052;-71
2023/05/19 06:05:33;;;;;;;4.32;1.90;;;;;;;19.15;39.38;102529.19;5007596;28;20045;-71
2023/05/19 06:07:59;;;;;;;4.03;1.88;;;;;;;19.16;39.46;102532.66;5001484;28;20034;-72
2023/05/19 06:10:24;;;;;;;4.53;2.00;;;;;;;19.17;39.65;102523.81;5001091;28;20084;-72
2023/05/19 06:12:49;;;;;;;6.72;2.00;;;;;;;19.20;39.38;102536.81;5001570;28;20287;-71
2023/05/19 06:15:15;;;;;;;3.92;1.90;;;;;;;19.22;39.50;102537.59;5006710;28;20057;-70
2023/05/19 06:17:40;;;;;;;4.80;2.08;;;;;;;19.19;39.50;102527.22;5020959;28;20037;-69
2023/05/19 06:20:07;;;;;;;4.05;2.00;;;;;;;19.20;39.43;102532.41;5021141;28;20034;-70
2023/05/19 06:22:33;;;;;;;4.95;2.25;;;;;;;19.21;39.35;102534.09;5015274;28;20539;-69
2023/05/19 06:24:58;;;;;;;5.88;1.83;;;;;;;19.24;39.48;102537.50;5007135;28;20022;-71
2023/05/19 06:27:23;;;;;;;4.72;2.20;;;;;;;19.22;39.36;102534.94;5009586;28;20030;-70
2023/05/19 06:29:49;;;;;;;4.22;1.90;;;;;;;19.24;39.54;102537.50;5015346;28;20133;-71
2023/05/19 06:32:14;;;;;;;4.50;2.13;;;;;;;19.23;39.37;102533.16;5003796;28;20463;-69
2023/05/19 06:34:40;;;;;;;4.57;2.17;;;;;;;19.23;39.54;102546.38;5003277;28;20097;-70
2023/05/19 06:37:05;;;;;;;6.35;2.13;;;;;;;19.23;39.28;102535.78;5008310;28;20270;-69
2023/05/19 06:39:31;;;;;;;4.47;2.47;;;;;;;19.23;39.28;102543.72;5014006;28;20227;-70
2023/05/19 06:41:56;;;;;;;3.53;1.77;;;;;;;19.25;39.55;102540.06;5020641;28;20473;-69
2023/05/19 06:44:21;;;;;;;4.97;1.80;;;;;;;19.23;39.36;102530.50;5007111;28;20049;-70
2023/05/19 06:46:47;;;;;;;3.95;1.70;;;;;;;19.22;39.61;102534.94;5012739;28;20061;-70
2023/05/19 06:49:12;;;;;;;4.13;1.75;;;;;;;19.25;39.56;102531.25;5011240;28;20044;-70
2023/05/19 06:51:37;;;;;;;4.55;1.83;;;;;;;19.25;39.63;102540.06;5004925;28;20041;-71
2023/05/19 06:54:02;;;;;;;4.32;1.83;;;;;;;19.29;39.45;102530.16;5020612;28;20029;-70
2023/05/19 06:56:28;;;;;;;3.92;1.75;;;;;;;19.32;39.29;102532.59;5018193;28;20041;-70
2023/05/19 06:58:53;;;;;;;8.15;1.98;;;;;;;19.34;39.37;102531.59;5020671;28;20066;-68
2023/05/19 07:01:18;;;;;;;5.47;2.55;;;;;;;19.36;39.49;102526.22;5020465;28;20038;-69
2023/05/19 07:03:43;;;;;;;5.27;2.00;;;;;;;19.37;39.33;102528.72;5006382;28;20042;-70
2023/05/19 07:06:09;;;;;;;6.35;2.33;;;;;;;19.38;39.76;102532.25;5002821;28;20350;-70
2023/05/19 07:08:35;;;;;;;5.75;2.30;;;;;;;19.32;40.21;102536.09;5015245;28;20061;-70
2023/05/19 07:11:01;;;;;;;6.47;2.10;;;;;;;19.31;40.24;102533.53;5005284;28;20351;-71
2023/05/19 07:13:26;;;;;;;4.97;2.03;;;;;;;19.31;40.55;102526.47;5019643;28;20470;-70
2023/05/19 07:15:54;;;;;;;4.82;2.00;;;;;;;19.29;40.78;102530.16;5023875;28;20048;-69
2023/05/19 07:18:20;;;;;;;5.70;2.17;;;;;;;19.34;40.90;102525.44;5015059;28;20116;-70
2023/05/19 07:20:45;;;;;;;4.55;1.75;;;;;;;19.37;40.68;102535.81;5002939;28;20160;-70
2023/05/19 07:23:10;;;;;;;5.07;2.03;;;;;;;19.34;40.99;102536.88;5014243;28;20505;-68
2023/05/19 07:25:36;;;;;;;5.22;2.00;;;;;;;19.38;41.09;102537.53;5004276;28;20405;-69
2023/05/19 07:28:01;;;;;;;5.82;1.98;;;;;;;19.39;40.86;102537.44;5005151;28;20114;-68
2023/05/19 07:30:27;;;;;;;6.22;2.13;;;;;;;19.38;41.38;102527.78;5016550;28;20033;-70
2023/05/19 07:32:52;;;;;;;8.95;2.97;;;;;;;19.36;41.53;102534.97;5014304;28;20072;-73
2023/05/19 07:35:19;;;;;;;6.40;2.50;;;;;;;19.39;41.56;102533.94;5012362;28;20081;-72
2023/05/19 07:37:44;;;;;;;8.32;2.28;;;;;;;19.37;41.63;102526.09;5004424;28;20534;-71
2023/05/19 07:40:10;;;;;;;4.55;1.80;;;;;;;19.39;41.75;102528.63;5003834;28;20175;-71
2023/05/19 07:42:35;;;;;;;6.93;2.28;;;;;;;19.40;41.98;102515.31;5006484;28;20030;-72
2023/05/19 07:45:02;;;;;;;6.03;2.33;;;;;;;19.41;42.02;102524.13;5007255;28;20136;-72
2023/05/19 07:47:28;;;;;;;6.65;3.15;;;;;;;19.41;43.01;102529.41;5018070;28;20032;-71
2023/05/19 07:49:53;;;;;;;7.70;2.83;;;;;;;19.45;44.21;102527.44;5004545;28;20478;-70
2023/05/19 07:52:18;;;;;;;6.00;2.80;;;;;;;19.48;44.05;102524.59;5008587;28;20108;-70
2023/05/19 07:54:44;;;;;;;9.93;2.95;;;;;;;19.61;43.98;102524.72;5011159;28;20033;-73
2023/05/19 07:57:10;;;;;;;7.63;2.80;;;;;;;19.72;43.84;102520.44;5015648;28;20029;-71
2023/05/19 07:59:35;;;;;;;7.57;2.60;;;;;;;19.81;43.37;102526.16;5008793;28;20390;-73
2023/05/19 08:02:01;;;;;;;7.32;2.95;;;;;;;19.83;43.50;102525.09;5016735;28;20033;-72
2023/05/19 08:04:26;;;;;;;15.05;3.25;;;;;;;19.88;43.23;102527.47;5012878;28;20085;-70
2023/05/19 08:06:52;;;;;;;6.05;2.55;;;;;;;19.89;43.68;102515.94;5006137;28;20945;-71
2023/05/19 08:09:17;;;;;;;9.88;2.80;;;;;;;19.90;43.59;102518.50;5009223;28;20029;-70
2023/05/19 08:11:43;;;;;;;6.32;2.75;;;;;;;19.90;43.80;102515.84;5009860;28;20038;-72
2023/05/19 08:14:09;;;;;;;8.48;2.90;;;;;;;19.93;43.54;102514.78;5009872;28;20085;-71
2023/05/19 08:16:35;;;;;;;9.18;2.85;;;;;;;19.92;43.36;102508.66;5002343;28;20385;-73
2023/05/19 08:19:03;;;;;;;6.18;2.70;;;;;;;19.96;43.37;102509.31;5008924;28;20034;-74
2023/05/19 08:21:29;;;;;;;7.97;2.85;;;;;;;19.97;43.18;102512.81;5011592;28;20022;-74
2023/05/19 08:23:54;;;;;;;6.18;2.40;;;;;;;19.96;43.14;102508.47;5008183;28;20030;-75
2023/05/19 08:26:20;;;;;;;6.78;2.63;;;;;;;19.98;43.19;102502.16;5010374;28;20038;-69
2023/05/19 08:28:45;;;;;;;5.65;2.40;;;;;;;20.00;43.35;102507.34;5009796;28;20022;-78
2023/05/19 08:31:10;;;;;;;6.80;2.70;;;;;;;20.03;43.12;102509.81;5026561;28;21378;-72
2023/05/19 08:33:36;;;;;;;4.75;2.20;;;;;;;20.05;43.13;102499.97;5005160;28;20069;-70
2023/05/19 08:36:01;;;;;;;5.07;2.38;;;;;;;20.05;43.13;102494.66;5012552;28;20309;-73
2023/05/19 08:38:26;;;;;;;7.45;2.70;;;;;;;20.08;42.98;102489.19;5018729;28;20288;-72
2023/05/19 08:40:53;;;;;;;8.52;2.33;;;;;;;20.06;43.13;102493.69;5011667;28;20504;-71
2023/05/19 08:43:18;;;;;;;5.20;2.20;;;;;;;20.03;43.17;102489.47;5015467;28;20068;-72
2023/05/19 08:45:46;;;;;;;6.28;2.10;;;;;;;20.01;43.22;102479.91;5020017;28;20072;-73
2023/05/19 08:48:13;;;;;;;7.85;2.55;;;;;;;19.96;43.18;102476.72;5015732;28;20025;-72
2023/05/19 08:50:43;;;;;;;7.43;3.08;;;;;;;20.03;42.93;102475.41;5011012;28;20109;-70
2023/05/19 08:53:21;;;;;;;5.40;2.30;;;;;;;20.00;42.68;102468.50;5010408;28;20036;-69
2023/05/19 08:56:12;;;;;;;6.10;1.95;;;;;;;20.05;42.68;102476.97;5006976;28;20088;-71
2023/05/19 08:58:40;;;;;;;7.68;2.42;;;;;;;20.05;42.59;102476.97;5012479;28;20536;-71
2023/05/19 09:01:06;;;;;;;6.90;1.80;;;;;;;20.05;42.72;102476.13;5019877;28;20117;-69
2023/05/19 09:03:36;;;;;;;7.18;2.08;;;;;;;20.06;42.56;102475.16;5016344;28;20044;-71
2023/05/19 09:06:04;;;;;;;6.43;2.33;;;;;;;20.05;42.75;102465.56;5015383;28;20034;-72
2023/05/19 09:08:29;;;;;;;7.13;2.20;;;;;;;20.05;42.61;102465.56;5010056;28;20034;-70
2023/05/19 09:10:55;;;;;;;6.80;2.17;;;;;;;20.08;42.41;102465.34;5020271;28;20048;-69
2023/05/19 09:13:20;;;;;;;5.47;2.10;;;;;;;20.09;42.25;102459.09;5015121;28;20040;-71
2023/05/19 09:15:46;;;;;;;5.82;2.67;;;;;;;20.11;42.12;102455.41;5011626;28;20341;-72
2023/05/19 09:18:13;;;;;;;5.45;2.00;;;;;;;20.13;41.96;102451.84;5007803;28;20035;-72
2023/05/19 09:20:41;;;;;;;7.45;2.00;;;;;;;20.13;41.62;102450.03;5014428;28;20037;-73
2023/05/19 09:23:12;;;;;;;6.22;1.92;;;;;;;20.11;41.97;102447.47;5004812;28;20033;-72
2023/05/19 09:25:46;;;;;;;10.05;2.15;;;;;;;20.04;42.17;102440.88;5006117;28;20629;-71
2023/05/19 09:28:11;;;;;;;5.25;2.17;;;;;;;20.09;41.78;102449.38;5005015;28;20065;-72
2023/05/19 09:30:36;;;;;;;5.15;1.98;;;;;;;20.10;41.99;102448.41;5007800;28;20042;-71
2023/05/19 09:33:03;;;;;;;7.03;2.13;;;;;;;20.12;41.68;102440.38;5005401;28;20133;-72
2023/05/19 09:35:28;;;;;;;7.30;2.00;;;;;;;20.09;41.93;102436.16;5025987;28;20122;-70
2023/05/19 09:37:53;;;;;;;8.68;1.85;;;;;;;20.07;41.80;102432.72;5013787;28;20072;-72
2023/05/19 09:40:19;;;;;;;4.90;1.77;;;;;;;20.08;41.59;102436.25;5014044;28;20033;-72
2023/05/19 09:42:44;;;;;;;7.30;1.98;;;;;;;20.10;41.76;102437.00;5011015;28;20041;-73
2023/05/19 09:45:10;;;;;;;3.78;1.70;;;;;;;20.11;41.92;102438.69;5012806;28;20051;-71
2023/05/19 09:47:40;;;;;;;8.32;1.95;;;;;;;20.10;41.67;102437.00;5017784;28;20041;-70
2023/05/19 09:50:10;;;;;;;6.85;1.83;;;;;;;20.05;41.76;102431.16;5030373;28;20029;-68
2023/05/19 09:52:42;;;;;;;4.93;1.88;;;;;;;20.09;41.41;102446.75;5014143;28;20475;-69
2023/05/19 09:55:09;;;;;;;5.90;1.80;;;;;;;20.11;40.93;102446.63;5013364;28;20061;-69
2023/05/19 09:57:36;;;;;;;7.20;2.00;;;;;;;20.13;40.57;102446.53;5005374;28;20041;-68
2023/05/19 10:00:16;;;;;;;4.68;1.77;;;;;;;20.07;40.89;102442.47;5008807;28;20080;-68
2023/05/19 10:02:46;;;;;;;4.20;1.50;;;;;;;20.08;41.15;102450.31;5012892;28;20061;-68
2023/05/19 10:05:15;;;;;;;4.97;1.65;;;;;;;20.07;40.96;102445.13;5016742;28;20390;-68
2023/05/19 10:07:43;;;;;;;10.02;2.05;;;;;;;20.07;41.19;102447.78;5011616;28;20030;-74
2023/05/19 10:10:11;;;;;;;5.00;1.80;;;;;;;20.04;41.29;102426.78;5012549;28;20040;-71
2023/05/19 10:12:38;;;;;;;4.75;1.65;;;;;;;20.08;41.07;102431.78;5003711;28;20034;-72
2023/05/19 10:15:11;;;;;;;6.78;1.63;;;;;;;20.08;41.11;102431.78;5010782;28;20057;-70
2023/05/19 10:17:38;;;;;;;5.43;1.77;;;;;;;20.14;41.39;102429.69;5008424;28;20036;-70
2023/05/19 10:20:09;;;;;;;4.25;1.50;;;;;;;20.14;41.43;102432.34;5010028;28;20036;-69
2023/05/19 10:22:35;;;;;;;5.82;1.80;;;;;;;20.12;41.25;102427.13;5015533;28;20478;-70
2023/05/19 10:25:00;;;;;;;4.03;1.73;;;;;;;20.15;41.32;102431.41;5006583;28;20052;-69
2023/05/19 10:27:27;;;;;;;4.35;1.65;;;;;;;20.13;41.38;102428.84;5013469;28;20029;-72
2023/05/19 10:29:57;;;;;;;4.82;1.63;;;;;;;20.14;41.21;102432.34;5004558;28;20062;-71
2023/05/19 10:32:28;;;;;;;8.10;1.50;;;;;;;20.20;41.13;102438.09;5007930;28;20041;-73
2023/05/19 10:35:27;;;;;;;3.63;1.13;;;;;;;20.22;41.05;102430.91;5003254;28;20030;-73
2023/05/19 10:37:55;;;;;;;6.28;1.73;;;;;;;20.22;41.04;102419.44;5013650;28;20060;-74
2023/05/19 10:40:32;;;;;;;7.63;1.70;;;;;;;20.15;40.89;102424.28;5011905;28;20033;-71
2023/05/19 10:43:10;;;;;;;4.93;1.70;;;;;;;20.16;40.78;102409.28;5016283;28;20037;-71
2023/05/19 10:45:44;;;;;;;4.43;1.50;;;;;;;20.11;41.06;102409.59;5016930;28;20041;-70
2023/05/19 10:48:13;;;;;;;5.40;1.95;;;;;;;20.15;40.90;102405.78;5015634;28;20087;-74
2023/05/19 10:50:38;;;;;;;5.05;1.48;;;;;;;20.18;41.10;102408.22;5011995;28;20061;-73
2023/05/19 10:53:03;;;;;;;9.75;1.80;;;;;;;20.16;41.00;102417.22;5015065;28;20117;-72
2023/05/19 10:55:49;;;;;;;4.38;1.40;;;;;;;20.13;41.08;102404.19;5013353;28;20379;-71
2023/05/19 10:58:14;;;;;;;7.85;1.83;;;;;;;20.12;41.11;102398.03;5014436;28;20478;-71
2023/05/19 11:00:43;;;;;;;5.20;1.75;;;;;;;20.10;41.21;102397.28;5015495;28;20034;-69
2023/05/19 11:03:12;;;;;;;7.57;1.85;;;;;;;20.10;41.19;102402.59;5015270;28;20043;-75
2023/05/19 11:05:37;;;;;;;4.25;1.50;;;;;;;20.09;40.87;102403.53;5022530;28;20397;-72
2023/05/19 11:08:06;;;;;;;5.68;1.42;;;;;;;20.09;41.11;102392.94;5006687;28;20540;-71
2023/05/19 11:10:32;;;;;;;5.03;1.90;;;;;;;20.12;41.10;102398.03;5016828;28;20030;-71
2023/05/19 11:12:57;;;;;;;3.90;1.48;;;;;;;20.13;40.98;102397.09;5017470;28;20040;-71
2023/05/19 11:15:26;;;;;;;4.00;1.67;;;;;;;20.16;41.00;102391.59;5006713;28;20123;-71
2023/05/19 11:17:52;;;;;;;5.85;1.40;;;;;;;20.24;40.66;102397.22;5005041;28;20595;-71
2023/05/19 11:20:28;;;;;;;4.93;1.60;;;;;;;20.25;40.51;102392.78;5012556;28;20037;-72
2023/05/19 11:23:04;;;;;;;5.18;1.35;;;;;;;20.27;40.34;102401.47;5018339;28;20474;-71
2023/05/19 11:25:43;;;;;;;5.68;2.08;;;;;;;20.27;40.62;102404.97;5021569;28;20084;-72